createdAt,value
2023-05-21T00:02:04.438Z,76.37
2023-05-21T00:04:34.242Z,76.85
2023-05-21T00:07:04.144Z,76.81
2023-05-21T00:09:33.499Z,76.99
2023-05-21T00:12:04.978Z,76.82
2023-05-21T00:14:35.276Z,77.07
2023-05-21T00:17:05.585Z,77.04
2023-05-21T00:19:34.968Z,76.71
2023-05-21T00:22:07.557Z,77.04
2023-05-21T00:24:38.160Z,77.14
2023-05-21T00:27:07.400Z,76.99
2023-05-21T00:29:36.635Z,76.99
2023-05-21T00:32:09.247Z,77.32
2023-05-21T00:34:38.609Z,77.50
2023-05-21T00:37:10.153Z,77.97
2023-05-21T00:39:39.827Z,77.63
2023-05-21T00:42:09.338Z,76.90
2023-05-21T00:44:39.586Z,76.85
2023-05-21T00:47:09.621Z,77.18
2023-05-21T00:49:39.125Z,76.86
2023-05-21T00:52:10.114Z,76.56
2023-05-21T00:54:41.865Z,76.92
2023-05-21T00:57:11.463Z,77.35
2023-05-21T00:59:41.315Z,77.53
2023-05-21T01:02:14.356Z,78.17
2023-05-21T01:04:47.585Z,78.06
2023-05-21T01:07:18.816Z,78.45
2023-05-21T01:09:48.568Z,78.35
2023-05-21T01:12:22.191Z,78.31
2023-05-21T01:14:55.425Z,78.50
2023-05-21T01:17:30.064Z,78.80
2023-05-21T01:20:02.649Z,78.75
2023-05-21T01:22:35.492Z,78.77
2023-05-21T01:25:05.757Z,78.48
2023-05-21T01:27:36.452Z,79.14
2023-05-21T01:30:07.511Z,78.98
2023-05-21T01:32:48.037Z,79.17
2023-05-21T01:35:26.711Z,78.99
2023-05-21T01:38:34.203Z,78.70
2023-05-21T01:41:10.444Z,78.88
2023-05-21T01:43:44.145Z,79.20
2023-05-21T01:46:21.943Z,79.29
2023-05-21T01:48:53.103Z,79.39
2023-05-21T01:51:24.271Z,79.52
2023-05-21T01:53:53.654Z,79.39
2023-05-21T01:56:25.969Z,79.58
2023-05-21T01:58:59.769Z,79.67
2023-05-21T02:01:32.483Z,79.46
2023-05-21T02:04:02.188Z,79.66
2023-05-21T02:06:31.991Z,80.04
2023-05-21T02:09:04.070Z,80.01
2023-05-21T02:11:33.302Z,80.32
2023-05-21T02:14:04.135Z,80.35
2023-05-21T02:16:33.618Z,80.23
2023-05-21T02:19:04.926Z,80.13
2023-05-21T02:21:34.360Z,79.84
2023-05-21T02:24:03.934Z,80.12
2023-05-21T02:26:33.164Z,79.87
2023-05-21T02:29:05.673Z,80.24
2023-05-21T02:31:35.263Z,80.55
2023-05-21T02:34:05.725Z,80.17
2023-05-21T02:36:36.304Z,80.55
2023-05-21T02:39:07.934Z,80.96
2023-05-21T02:41:38.574Z,80.64
2023-05-21T02:44:09.811Z,80.28
2023-05-21T02:46:39.989Z,80.83
2023-05-21T02:49:09.392Z,80.85
2023-05-21T02:51:38.743Z,81.12
2023-05-21T02:54:08.168Z,80.98
2023-05-21T02:56:37.725Z,80.98
2023-05-21T02:59:07.419Z,80.97
2023-05-21T03:01:43.719Z,80.98
2023-05-21T03:04:13.217Z,80.79
2023-05-21T03:06:42.869Z,80.62
2023-05-21T03:09:12.343Z,80.55
2023-05-21T03:11:44.332Z,80.74
2023-05-21T03:14:14.718Z,80.48
2023-05-21T03:16:46.005Z,80.46
2023-05-21T03:19:15.726Z,80.45
2023-05-21T03:21:50.730Z,80.35
2023-05-21T03:24:22.524Z,80.39
2023-05-21T03:26:51.900Z,80.26
2023-05-21T03:29:22.143Z,80.28
2023-05-21T03:31:56.881Z,80.31
2023-05-21T03:34:26.365Z,80.54
2023-05-21T03:36:55.736Z,80.74
2023-05-21T03:39:26.206Z,80.81
2023-05-21T03:41:57.215Z,80.80
2023-05-21T03:44:34.756Z,80.51
2023-05-21T03:47:19.198Z,80.22
2023-05-21T03:49:51.056Z,80.04
2023-05-21T03:52:20.581Z,79.90
2023-05-21T03:54:53.241Z,80.22
2023-05-21T03:57:25.722Z,80.09
2023-05-21T04:00:06.696Z,80.48
2023-05-21T04:02:45.352Z,80.11
2023-05-21T04:05:16.442Z,79.97
2023-05-21T04:07:49.041Z,79.99
2023-05-21T04:10:18.621Z,79.91
2023-05-21T04:12:52.675Z,79.69
2023-05-21T04:15:22.671Z,79.50
2023-05-21T04:17:53.486Z,79.20
2023-05-21T04:20:23.079Z,79.34
2023-05-21T04:22:53.147Z,79.06
2023-05-21T04:25:23.416Z,78.82
2023-05-21T04:27:54.839Z,78.45
2023-05-21T04:30:25.011Z,78.60
2023-05-21T04:32:55.081Z,78.49
2023-05-21T04:35:24.791Z,78.39
2023-05-21T04:37:55.347Z,78.39
2023-05-21T04:40:25.975Z,78.42
2023-05-21T04:42:57.338Z,78.19
2023-05-21T04:45:27.265Z,78.27
2023-05-21T04:48:00.759Z,77.97
2023-05-21T04:50:31.822Z,77.56
2023-05-21T04:53:03.541Z,77.45
2023-05-21T04:55:33.291Z,77.30
2023-05-21T04:58:04.360Z,76.98
2023-05-21T05:00:35.081Z,76.71
2023-05-21T05:03:06.673Z,76.59
2023-05-21T05:05:36.529Z,76.18
2023-05-21T05:08:07.823Z,75.24
2023-05-21T05:10:37.291Z,75.43
2023-05-21T05:13:07.843Z,75.38
2023-05-21T05:15:37.833Z,75.47
2023-05-21T05:18:08.846Z,74.86
2023-05-21T05:20:39.821Z,74.87
2023-05-21T05:23:10.624Z,74.90
2023-05-21T05:25:40.650Z,74.39
2023-05-21T05:28:12.333Z,74.48
2023-05-21T05:30:42.427Z,74.74
2023-05-21T05:33:23.795Z,74.32
2023-05-21T05:35:54.845Z,73.87
2023-05-21T05:38:27.110Z,71.85
2023-05-21T05:40:56.648Z,71.08
2023-05-21T05:43:28.135Z,71.17
2023-05-21T05:45:58.343Z,70.24
2023-05-21T05:48:27.849Z,69.48
2023-05-21T05:50:57.482Z,68.17
2023-05-21T05:53:28.183Z,68.03
2023-05-21T05:56:00.262Z,67.57
2023-05-21T05:58:31.890Z,67.56
2023-05-21T06:01:10.476Z,67.26
2023-05-21T06:03:40.035Z,66.37
2023-05-21T06:06:38.986Z,66.04
2023-05-21T06:09:10.946Z,65.57
2023-05-21T06:11:41.219Z,64.46
2023-05-21T06:14:13.057Z,63.64
2023-05-21T06:16:42.888Z,62.85
2023-05-21T06:19:15.667Z,63.01
2023-05-21T06:21:47.810Z,62.42
2023-05-21T06:24:17.480Z,61.52
2023-05-21T06:26:47.186Z,61.21
2023-05-21T06:29:17.467Z,60.49
2023-05-21T06:31:48.796Z,60.86
2023-05-21T06:34:18.750Z,60.28
2023-05-21T06:36:49.159Z,60.20
2023-05-21T06:39:19.315Z,59.88
2023-05-21T06:41:48.995Z,59.57
2023-05-21T06:45:00.481Z,59.34
2023-05-21T06:47:38.164Z,59.67
2023-05-21T06:50:08.236Z,59.07
2023-05-21T06:52:37.888Z,58.01
2023-05-21T06:55:09.842Z,57.92
2023-05-21T06:57:59.136Z,57.81
2023-05-21T07:00:28.637Z,57.05
2023-05-21T07:02:58.014Z,56.83
2023-05-21T07:05:28.965Z,57.43
2023-05-21T07:07:58.648Z,56.33
2023-05-21T07:10:28.154Z,56.26
2023-05-21T07:12:57.668Z,56.12
2023-05-21T07:15:27.232Z,55.44
2023-05-21T07:17:56.737Z,55.48
2023-05-21T07:20:31.223Z,54.99
2023-05-21T07:23:02.916Z,54.59
2023-05-21T07:25:32.253Z,54.54
2023-05-21T07:28:06.427Z,54.40
2023-05-21T07:30:42.622Z,54.44
2023-05-21T07:33:16.839Z,54.23
2023-05-21T07:35:48.213Z,54.38
2023-05-21T07:38:20.733Z,53.98
2023-05-21T07:40:51.546Z,53.40
2023-05-21T07:43:21.333Z,53.09
2023-05-21T07:45:52.085Z,52.82
2023-05-21T07:48:21.550Z,52.43
2023-05-21T07:51:00.736Z,51.75
2023-05-21T07:53:32.739Z,51.40
2023-05-21T07:56:03.980Z,51.08
2023-05-21T07:58:36.694Z,50.37
2023-05-21T08:01:15.214Z,50.01
2023-05-21T08:03:45.233Z,49.49
2023-05-21T08:06:16.189Z,49.65
2023-05-21T08:08:46.072Z,48.90
2023-05-21T08:11:16.284Z,49.33
2023-05-21T08:13:46.334Z,48.13
2023-05-21T08:16:16.796Z,48.02
2023-05-21T08:18:46.317Z,47.53
2023-05-21T08:21:17.155Z,47.36
2023-05-21T08:23:46.729Z,47.75
2023-05-21T08:26:19.191Z,47.40
2023-05-21T08:28:48.782Z,47.46
2023-05-21T08:31:19.359Z,46.61
2023-05-21T08:33:53.764Z,46.27
2023-05-21T08:36:27.202Z,45.72
2023-05-21T08:39:01.778Z,45.88
2023-05-21T08:41:38.069Z,45.20
2023-05-21T08:44:13.420Z,45.33
2023-05-21T08:46:45.754Z,44.05
2023-05-21T08:49:19.003Z,44.09
2023-05-21T08:51:50.756Z,43.29
2023-05-21T08:54:32.705Z,43.37
2023-05-21T08:57:04.705Z,43.38
2023-05-21T08:59:36.077Z,43.78
2023-05-21T09:02:06.330Z,44.04
2023-05-21T09:04:41.464Z,44.62
2023-05-21T09:07:11.288Z,44.34
2023-05-21T09:10:14.680Z,43.87
2023-05-21T09:12:44.713Z,43.53
2023-05-21T09:15:14.509Z,42.77
2023-05-21T09:17:49.079Z,43.10
2023-05-21T09:20:33.603Z,43.49
2023-05-21T09:23:12.597Z,42.08
2023-05-21T09:25:45.343Z,41.34
2023-05-21T09:28:17.577Z,40.91
2023-05-21T09:30:49.061Z,39.89
2023-05-21T09:33:26.770Z,39.27
2023-05-21T09:35:59.035Z,39.05
2023-05-21T09:38:29.682Z,40.43
2023-05-21T09:41:00.020Z,39.49
2023-05-21T09:43:31.377Z,39.26
2023-05-21T09:46:02.251Z,39.46
2023-05-21T09:48:44.791Z,37.93
2023-05-21T09:51:21.675Z,37.08
2023-05-21T09:53:55.813Z,36.23
2023-05-21T09:56:30.829Z,36.00
2023-05-21T09:59:04.477Z,35.14
2023-05-21T10:01:40.914Z,35.09
2023-05-21T10:04:31.791Z,36.02
2023-05-21T10:07:02.678Z,35.82
2023-05-21T10:09:33.838Z,36.62
2023-05-21T10:12:05.477Z,36.17
2023-05-21T10:14:36.609Z,35.76
2023-05-21T10:17:08.835Z,35.60
2023-05-21T10:19:40.692Z,35.09
2023-05-21T10:22:10.407Z,35.62
2023-05-21T10:24:42.673Z,34.67
2023-05-21T10:27:14.350Z,34.15
2023-05-21T10:29:48.361Z,34.20
2023-05-21T10:32:21.841Z,33.22
2023-05-21T10:34:54.117Z,32.86
2023-05-21T10:37:28.132Z,32.18
2023-05-21T10:39:57.944Z,32.84
2023-05-21T10:42:33.124Z,32.33
2023-05-21T10:45:54.462Z,31.62
2023-05-21T10:48:53.129Z,31.18
2023-05-21T10:51:37.783Z,31.32
2023-05-21T10:54:19.802Z,31.07
2023-05-21T10:57:06.082Z,30.11
2023-05-21T10:59:48.863Z,30.73
2023-05-21T11:02:20.457Z,31.48
2023-05-21T11:04:59.414Z,31.06
2023-05-21T11:07:53.955Z,30.44
2023-05-21T11:10:41.193Z,30.81
2023-05-21T11:13:18.917Z,31.28
2023-05-21T11:15:57.892Z,31.76
2023-05-21T11:18:38.147Z,32.61
2023-05-21T11:21:10.992Z,32.11
2023-05-21T11:24:05.630Z,31.57
2023-05-21T11:26:52.284Z,32.06
2023-05-21T11:29:40.547Z,32.05
2023-05-21T11:32:12.997Z,32.00
2023-05-21T11:34:48.154Z,32.37
2023-05-21T11:37:17.960Z,32.91
2023-05-21T11:39:49.506Z,33.20
2023-05-21T11:42:31.115Z,33.43
2023-05-21T11:45:04.664Z,34.10
2023-05-21T11:47:35.337Z,33.92
2023-05-21T11:50:05.337Z,34.90
2023-05-21T11:52:35.190Z,36.74
2023-05-21T11:55:05.993Z,36.65
2023-05-21T11:57:35.381Z,36.05
2023-05-21T12:00:14.193Z,36.24
2023-05-21T12:02:50.310Z,36.69
2023-05-21T12:05:20.162Z,36.61
2023-05-21T12:07:50.628Z,35.93
2023-05-21T12:10:24.437Z,36.32
2023-05-21T12:12:57.697Z,36.71
2023-05-21T12:15:27.792Z,36.18
2023-05-21T12:17:58.035Z,36.40
2023-05-21T12:20:28.863Z,36.51
2023-05-21T12:22:59.978Z,37.06
2023-05-21T12:25:30.419Z,36.83
2023-05-21T12:28:02.114Z,35.97
2023-05-21T12:30:32.075Z,34.95
2023-05-21T12:33:02.597Z,35.57
2023-05-21T12:35:32.450Z,35.18
2023-05-21T12:38:03.369Z,35.45
2023-05-21T12:40:40.628Z,35.03
2023-05-21T12:43:10.658Z,35.30
2023-05-21T12:45:40.977Z,34.83
2023-05-21T12:48:12.811Z,33.58
2023-05-21T12:50:44.190Z,33.73
2023-05-21T12:53:13.764Z,33.87
2023-05-21T12:55:43.314Z,33.85
2023-05-21T12:58:14.529Z,33.82
2023-05-21T13:00:46.743Z,33.44
2023-05-21T13:03:16.667Z,33.50
2023-05-21T13:05:46.200Z,33.66
2023-05-21T13:08:18.224Z,34.11
2023-05-21T13:10:51.711Z,33.70
2023-05-21T13:13:21.543Z,33.39
2023-05-21T13:15:51.176Z,34.19
2023-05-21T13:18:23.501Z,33.31
2023-05-21T13:20:53.117Z,32.92
2023-05-21T13:23:22.827Z,32.03
2023-05-21T13:25:52.291Z,31.30
2023-05-21T13:28:22.174Z,30.23
2023-05-21T13:30:56.162Z,28.84
2023-05-21T13:33:25.768Z,28.33
2023-05-21T13:35:55.396Z,28.68
2023-05-21T13:38:25.070Z,28.95
2023-05-21T13:40:56.732Z,29.35
2023-05-21T13:43:26.213Z,28.28
2023-05-21T13:45:55.508Z,28.60
2023-05-21T13:48:25.161Z,27.67
2023-05-21T13:50:55.095Z,27.85
2023-05-21T13:53:26.024Z,27.44
2023-05-21T13:55:56.632Z,27.96
2023-05-21T13:58:28.109Z,27.87
2023-05-21T14:00:57.798Z,27.62
2023-05-21T14:03:27.960Z,27.17
2023-05-21T14:05:57.947Z,26.80
2023-05-21T14:08:29.162Z,27.20
2023-05-21T14:10:58.858Z,27.58
2023-05-21T14:13:29.186Z,27.38
2023-05-21T14:15:59.877Z,27.36
2023-05-21T14:18:29.358Z,27.49
2023-05-21T14:20:59.042Z,27.91
2023-05-21T14:23:29.574Z,27.39
2023-05-21T14:25:59.144Z,27.59
2023-05-21T14:28:28.754Z,27.11
2023-05-21T14:30:58.013Z,26.25
2023-05-21T14:33:27.541Z,25.82
2023-05-21T14:35:57.215Z,25.36
2023-05-21T14:38:27.914Z,25.17
2023-05-21T14:40:57.372Z,25.30
2023-05-21T14:43:26.934Z,24.80
2023-05-21T14:45:56.373Z,25.30
2023-05-21T14:48:26.657Z,25.60
2023-05-21T14:50:56.259Z,25.69
2023-05-21T14:53:25.526Z,25.80
2023-05-21T14:55:55.723Z,26.05
2023-05-21T14:58:25.262Z,25.63
2023-05-21T15:00:54.782Z,25.46
2023-05-21T15:03:25.209Z,25.84
2023-05-21T15:05:55.920Z,25.85
2023-05-21T15:08:26.020Z,26.15
2023-05-21T15:10:55.500Z,25.85
2023-05-21T15:13:24.947Z,26.36
2023-05-21T15:15:54.965Z,26.35
2023-05-21T15:18:25.046Z,26.32
2023-05-21T15:20:56.855Z,26.19
2023-05-21T15:23:26.324Z,25.99
2023-05-21T15:25:56.028Z,26.05
2023-05-21T15:28:26.008Z,26.42
2023-05-21T15:30:55.642Z,26.62
2023-05-21T15:33:25.090Z,26.28
2023-05-21T15:35:54.847Z,26.84
2023-05-21T15:38:24.423Z,26.80
2023-05-21T15:40:53.898Z,27.01
2023-05-21T15:43:23.983Z,27.48
2023-05-21T15:45:53.394Z,27.38
2023-05-21T15:48:23.199Z,27.11
2023-05-21T15:50:53.373Z,27.50
2023-05-21T15:53:22.823Z,27.37
2023-05-21T15:55:52.194Z,27.46
2023-05-21T15:58:22.060Z,27.24
2023-05-21T16:00:53.382Z,26.91
2023-05-21T16:03:26.065Z,26.10
2023-05-21T16:05:55.777Z,26.43
2023-05-21T16:08:25.222Z,26.81
2023-05-21T16:10:54.723Z,26.65
2023-05-21T16:13:24.204Z,27.14
2023-05-21T16:15:53.658Z,26.86
2023-05-21T16:18:23.139Z,26.88
2023-05-21T16:20:55.332Z,26.80
2023-05-21T16:23:24.846Z,26.93
2023-05-21T16:25:55.400Z,27.12
2023-05-21T16:30:58.171Z,27.60
2023-05-21T16:33:27.785Z,28.49
2023-05-21T16:35:57.305Z,28.76
2023-05-21T16:38:26.885Z,29.06
2023-05-21T16:40:57.154Z,29.38
2023-05-21T16:43:27.178Z,29.72
2023-05-21T16:45:56.686Z,30.66
2023-05-21T16:48:26.266Z,30.21
2023-05-21T16:50:55.597Z,30.56
2023-05-21T16:53:27.679Z,30.59
2023-05-21T16:55:58.316Z,30.58
2023-05-21T16:58:28.030Z,30.79
2023-05-21T17:00:58.271Z,31.06
2023-05-21T17:03:29.045Z,31.66
2023-05-21T17:05:58.843Z,31.91
2023-05-21T17:08:28.361Z,32.12
2023-05-21T17:10:58.538Z,32.65
2023-05-21T17:13:27.992Z,32.76
2023-05-21T17:15:57.616Z,33.05
2023-05-21T17:18:27.093Z,33.57
2023-05-21T17:20:56.515Z,33.87
2023-05-21T17:23:28.377Z,34.13
2023-05-21T17:25:59.056Z,34.72
2023-05-21T17:28:28.494Z,35.09
2023-05-21T17:30:58.433Z,35.79
2023-05-21T17:33:28.317Z,35.63
2023-05-21T17:35:57.805Z,36.05
2023-05-21T17:38:27.182Z,36.55
2023-05-21T17:40:56.788Z,36.55
2023-05-21T17:43:27.757Z,36.56
2023-05-21T17:45:57.310Z,36.75
2023-05-21T17:48:27.030Z,37.27
2023-05-21T17:50:56.364Z,37.36
2023-05-21T17:53:26.070Z,37.84
2023-05-21T17:55:55.446Z,38.31
2023-05-21T17:58:24.828Z,38.66
2023-05-21T18:00:54.390Z,39.04
2023-05-21T18:03:24.368Z,39.24
2023-05-21T18:05:53.737Z,39.46
2023-05-21T18:08:23.175Z,40.15
2023-05-21T18:10:52.596Z,40.48
2023-05-21T18:13:21.953Z,39.86
2023-05-21T18:15:51.343Z,40.19
2023-05-21T18:18:21.774Z,39.70
2023-05-21T18:20:53.130Z,39.86
2023-05-21T18:23:23.097Z,40.69
2023-05-21T18:25:52.442Z,41.65
2023-05-21T18:28:21.964Z,42.63
2023-05-21T18:30:51.365Z,43.39
2023-05-21T18:33:20.889Z,44.13
2023-05-21T18:35:50.392Z,45.25
2023-05-21T18:38:19.825Z,45.96
2023-05-21T18:40:51.442Z,47.01
2023-05-21T18:43:20.930Z,47.92
2023-05-21T18:45:50.976Z,48.94
2023-05-21T18:48:20.451Z,49.29
2023-05-21T18:50:49.967Z,49.70
2023-05-21T18:53:19.705Z,50.22
2023-05-21T18:55:48.978Z,50.77
2023-05-21T18:58:20.555Z,51.17
2023-05-21T19:00:50.218Z,51.79
2023-05-21T19:03:19.825Z,52.15
2023-05-21T19:05:49.134Z,52.20
2023-05-21T19:08:18.846Z,52.95
2023-05-21T19:10:50.491Z,52.63
2023-05-21T19:13:19.953Z,52.99
2023-05-21T19:15:49.382Z,53.26
2023-05-21T19:18:18.850Z,53.75
2023-05-21T19:20:48.176Z,54.09
2023-05-21T19:23:17.649Z,53.93
2023-05-21T19:25:46.969Z,54.45
2023-05-21T19:28:16.273Z,54.77
2023-05-21T19:30:46.482Z,55.21
2023-05-21T19:33:16.129Z,55.18
2023-05-21T19:35:45.641Z,55.65
2023-05-21T19:38:16.047Z,55.71
2023-05-21T19:40:45.612Z,55.69
2023-05-21T19:43:15.768Z,56.16
2023-05-21T19:45:46.111Z,56.14
2023-05-21T19:48:16.291Z,56.51
2023-05-21T19:50:45.823Z,56.58
2023-05-21T19:53:16.029Z,57.17
2023-05-21T19:55:46.276Z,57.30
2023-05-21T19:58:19.356Z,57.72
2023-05-21T20:00:49.441Z,58.03
2023-05-21T20:03:22.318Z,58.74
2023-05-21T20:05:52.888Z,58.73
2023-05-21T20:08:22.274Z,58.84
2023-05-21T20:10:52.153Z,59.36
2023-05-21T20:13:22.463Z,59.31
2023-05-21T20:15:52.146Z,59.39
2023-05-21T20:18:21.857Z,59.97
2023-05-21T20:20:51.526Z,60.06
2023-05-21T20:23:21.054Z,60.27
2023-05-21T20:25:50.605Z,60.26
2023-05-21T20:28:22.257Z,60.70
2023-05-21T20:30:58.132Z,60.83
2023-05-21T20:33:28.304Z,60.65
2023-05-21T20:36:01.475Z,60.71
2023-05-21T20:38:32.588Z,60.66
2023-05-21T20:41:04.234Z,60.66
2023-05-21T20:43:37.481Z,61.23
2023-05-21T20:46:11.334Z,61.25
2023-05-21T20:48:41.941Z,61.51
2023-05-21T20:51:11.459Z,61.75
2023-05-21T20:53:41.001Z,61.85
2023-05-21T20:56:16.109Z,62.26
2023-05-21T20:58:48.911Z,62.19
2023-05-21T21:01:18.924Z,62.54
2023-05-21T21:03:48.347Z,62.98
2023-05-21T21:06:18.930Z,63.00
2023-05-21T21:08:50.795Z,62.83
2023-05-21T21:11:20.254Z,63.34
2023-05-21T21:13:50.320Z,63.85
2023-05-21T21:16:19.696Z,64.22
2023-05-21T21:18:50.214Z,64.32
2023-05-21T21:21:19.872Z,64.46
2023-05-21T21:23:49.473Z,64.93
2023-05-21T21:26:18.929Z,65.24
2023-05-21T21:28:48.287Z,65.37
2023-05-21T21:31:17.791Z,66.10
2023-05-21T21:33:47.443Z,65.94
2023-05-21T21:36:16.997Z,65.98
2023-05-21T21:38:46.514Z,66.15
2023-05-21T21:41:16.018Z,66.77
2023-05-21T21:43:45.346Z,67.00
2023-05-21T21:46:15.671Z,66.92
2023-05-21T21:48:45.453Z,66.64
2023-05-21T21:51:15.842Z,66.91
2023-05-21T21:53:45.220Z,66.86
2023-05-21T21:56:15.121Z,67.06
2023-05-21T21:58:48.040Z,67.37
2023-05-21T22:01:17.814Z,67.54
2023-05-21T22:03:47.513Z,67.52
2023-05-21T22:06:21.436Z,67.34
2023-05-21T22:08:51.234Z,67.36
2023-05-21T22:11:28.845Z,67.87
2023-05-21T22:14:00.701Z,67.99
2023-05-21T22:16:30.310Z,68.54
2023-05-21T22:19:00.536Z,68.16
2023-05-21T22:21:33.031Z,68.42
2023-05-21T22:24:02.761Z,68.75
2023-05-21T22:26:33.553Z,69.21
2023-05-21T22:29:03.198Z,68.48
2023-05-21T22:31:32.663Z,69.58
2023-05-21T22:34:02.120Z,69.73
2023-05-21T22:36:31.639Z,69.55
2023-05-21T22:39:03.124Z,69.42
2023-05-21T22:41:33.109Z,69.70
2023-05-21T22:44:03.106Z,70.12
2023-05-21T22:46:32.868Z,70.17
2023-05-21T22:49:04.204Z,70.51
2023-05-21T22:54:22.851Z,71.10
2023-05-21T22:56:52.162Z,71.53
2023-05-21T22:59:21.502Z,71.52
2023-05-21T23:01:51.202Z,71.36
2023-05-21T23:04:35.762Z,71.71
2023-05-21T23:07:13.205Z,71.97
2023-05-21T23:09:42.655Z,72.23
2023-05-21T23:12:12.646Z,73.08
2023-05-21T23:14:43.528Z,72.69
2023-05-21T23:17:13.036Z,72.81
2023-05-21T23:19:45.869Z,73.04
2023-05-21T23:22:17.192Z,73.17
2023-05-21T23:24:50.735Z,73.47
2023-05-21T23:27:22.091Z,73.36
2023-05-21T23:29:52.673Z,73.33
2023-05-21T23:32:24.742Z,73.23
2023-05-21T23:34:54.285Z,73.06
2023-05-21T23:37:23.819Z,73.46
2023-05-21T23:39:53.230Z,73.10
2023-05-21T23:42:25.185Z,73.15
2023-05-21T23:44:54.606Z,74.21
2023-05-21T23:47:26.126Z,73.47
2023-05-21T23:49:58.979Z,73.53
2023-05-21T23:52:59.677Z,73.28
2023-05-21T23:55:29.049Z,73.84
2023-05-21T23:57:58.353Z,74.10
